Time;durP1;ratioP1;P1;durP2;ratioP2;P2;SDS_P1;SDS_P2;PMS_P1;PMS_P2;Temp;Humidity;BMP_temperature;BMP_pressure;BME280_temperature;BME280_humidity;BME280_pressure;Samples;Min_cycle;Max_cycle;Signal;HPM_P1;HPM_P2
2021/12/19 00:02:47;;;;;;;84.55;28.63;;;;;;;;;;4991569;28;20061;-66
2021/12/19 00:10:24;;;;;;;81.80;28.88;;;;;;;;;;4991514;28;20502;-66
2021/12/19 00:12:52;;;;;;;90.18;30.05;;;;;;;;;;4992475;28;20442;-66
2021/12/19 00:15:18;;;;;;;87.18;30.88;;;;;;;;;;4991309;28;20069;-66
2021/12/19 00:17:44;;;;;;;84.18;28.83;;;;;;;;;;4992123;28;20030;-66
2021/12/19 00:20:10;;;;;;;90.45;29.70;;;;;;;;;;4990293;28;20037;-66
2021/12/19 00:22:37;;;;;;;85.93;29.80;;;;;;;;;;4992441;28;20505;-66
2021/12/19 00:25:03;;;;;;;96.80;30.70;;;;;;;;;;4992099;28;20366;-66
2021/12/19 00:27:30;;;;;;;87.03;30.80;;;;;;;;;;4992867;28;20454;-66
2021/12/19 00:29:56;;;;;;;91.25;30.05;;;;;;;;;;4995040;28;20030;-66
2021/12/19 00:32:22;;;;;;;95.10;30.85;;;;;;;;;;4995786;28;20030;-66
2021/12/19 00:34:51;;;;;;;95.47;31.73;;;;;;;;;;4994976;28;20046;-66
2021/12/19 00:37:20;;;;;;;81.65;29.38;;;;;;;;;;4995575;28;20084;-66
2021/12/19 00:39:47;;;;;;;96.72;31.48;;;;;;;;;;4995517;28;20041;-66
2021/12/19 00:42:14;;;;;;;88.07;30.42;;;;;;;;;;4995339;28;20015;-66
2021/12/19 00:44:42;;;;;;;93.40;31.13;;;;;;;;;;4995698;28;20498;-66
2021/12/19 00:47:08;;;;;;;98.65;30.80;;;;;;;;;;4994711;28;20168;-66
2021/12/19 00:49:35;;;;;;;83.30;29.08;;;;;;;;;;4976106;28;20461;-66
2021/12/19 00:52:02;;;;;;;86.68;28.92;;;;;;;;;;4987805;28;20036;-66
2021/12/19 00:54:28;;;;;;;86.95;29.38;;;;;;;;;;4994997;28;20030;-66
2021/12/19 00:56:55;;;;;;;82.63;29.85;;;;;;;;;;4994706;28;20057;-66
2021/12/19 00:59:21;;;;;;;84.78;30.38;;;;;;;;;;4995158;28;20058;-66
2021/12/19 01:01:48;;;;;;;88.10;30.27;;;;;;;;;;4995596;28;20033;-66
2021/12/19 01:04:15;;;;;;;93.90;29.98;;;;;;;;;;4995056;28;20029;-66
2021/12/19 01:06:42;;;;;;;85.40;29.30;;;;;;;;;;4995263;28;20032;-66
2021/12/19 01:09:08;;;;;;;97.72;32.45;;;;;;;;;;4994722;28;20434;-66
2021/12/19 01:11:34;;;;;;;82.38;29.42;;;;;;;;;;4994097;28;20034;-66
2021/12/19 01:14:01;;;;;;;96.63;30.05;;;;;;;;;;4994997;28;20163;-66
2021/12/19 01:16:27;;;;;;;89.00;29.58;;;;;;;;;;4994869;28;20038;-66
2021/12/19 01:18:53;;;;;;;91.40;29.80;;;;;;;;;;4994764;28;20018;-66
2021/12/19 01:21:19;;;;;;;85.00;29.13;;;;;;;;;;4994909;28;20022;-66
2021/12/19 01:23:45;;;;;;;87.85;29.73;;;;;;;;;;4994651;28;20058;-66
2021/12/19 01:26:11;;;;;;;91.53;29.85;;;;;;;;;;4994430;28;20544;-66
2021/12/19 01:28:38;;;;;;;92.32;31.55;;;;;;;;;;4993445;28;20074;-66
2021/12/19 01:31:04;;;;;;;90.32;29.05;;;;;;;;;;4994968;28;20070;-66
2021/12/19 01:33:30;;;;;;;84.38;28.85;;;;;;;;;;4994868;28;20595;-66
2021/12/19 01:35:57;;;;;;;86.35;29.48;;;;;;;;;;4994508;28;20050;-66
2021/12/19 01:38:23;;;;;;;78.30;28.95;;;;;;;;;;4993115;28;20038;-66
2021/12/19 01:40:49;;;;;;;80.05;29.02;;;;;;;;;;4994305;28;20037;-66
2021/12/19 01:43:20;;;;;;;88.53;29.35;;;;;;;;;;4994561;28;20033;-66
2021/12/19 01:45:46;;;;;;;94.25;29.33;;;;;;;;;;4993779;28;20026;-66
2021/12/19 01:48:12;;;;;;;93.43;31.38;;;;;;;;;;4994387;28;20027;-66
2021/12/19 01:50:39;;;;;;;99.75;30.38;;;;;;;;;;4994371;28;20041;-66
2021/12/19 01:53:07;;;;;;;91.10;29.92;;;;;;;;;;4993312;28;20106;-66
2021/12/19 01:55:33;;;;;;;90.05;27.25;;;;;;;;;;4994393;28;20022;-66
2021/12/19 01:58:00;;;;;;;80.38;28.17;;;;;;;;;;4994511;28;20022;-66
2021/12/19 02:00:27;;;;;;;92.85;31.85;;;;;;;;;;4993676;28;20023;-66
2021/12/19 02:02:54;;;;;;;91.10;29.95;;;;;;;;;;4994229;28;20521;-66
2021/12/19 02:05:21;;;;;;;91.85;28.60;;;;;;;;;;4993027;28;20437;-66
2021/12/19 02:07:50;;;;;;;91.63;28.98;;;;;;;;;;4992921;28;20113;-66
2021/12/19 02:10:20;;;;;;;82.18;27.88;;;;;;;;;;4992965;28;20069;-66
2021/12/19 02:12:50;;;;;;;75.15;27.80;;;;;;;;;;4994271;28;20037;-66
2021/12/19 02:15:19;;;;;;;78.75;26.75;;;;;;;;;;4993827;28;20536;-66
2021/12/19 02:17:46;;;;;;;84.20;30.88;;;;;;;;;;4993989;28;20168;-66
2021/12/19 02:20:13;;;;;;;76.68;25.58;;;;;;;;;;4992290;28;20022;-66
2021/12/19 02:22:39;;;;;;;81.93;26.42;;;;;;;;;;4992425;28;20368;-66
2021/12/19 02:25:06;;;;;;;81.47;26.70;;;;;;;;;;4992879;28;20434;-66
2021/12/19 02:27:32;;;;;;;83.63;28.17;;;;;;;;;;4993517;28;20398;-66
2021/12/19 02:29:58;;;;;;;83.22;27.75;;;;;;;;;;4993966;28;20548;-66
2021/12/19 02:32:26;;;;;;;84.60;27.15;;;;;;;;;;4992591;28;20023;-66
2021/12/19 02:34:55;;;;;;;83.32;27.80;;;;;;;;;;4992624;28;20137;-66
2021/12/19 02:40:27;;;;;;;89.22;29.33;;;;;;;;;;4993596;28;20030;-66
2021/12/19 02:48:39;;;;;;;95.90;29.73;;;;;;;;;;4884397;29;20040;-66
2021/12/19 02:51:06;;;;;;;97.20;30.58;;;;;;;;;;4913614;29;20119;-66
2021/12/19 02:53:37;;;;;;;70.38;26.70;;;;;;;;;;4914155;29;20114;-66
2021/12/19 02:56:05;;;;;;;103.63;30.02;;;;;;;;;;4914247;29;20051;-66
2021/12/19 02:58:32;;;;;;;89.85;28.38;;;;;;;;;;4914232;29;20477;-66
2021/12/19 03:01:00;;;;;;;90.10;29.92;;;;;;;;;;4910396;29;20060;-66
2021/12/19 03:03:26;;;;;;;100.10;30.65;;;;;;;;;;4895046;29;20029;-66
2021/12/19 03:05:52;;;;;;;97.90;29.27;;;;;;;;;;4895027;29;20108;-66
2021/12/19 03:08:18;;;;;;;89.70;31.35;;;;;;;;;;4895174;29;20497;-66
2021/12/19 03:19:15;;;;;;;82.38;26.42;;;;;;;;;;4877068;29;20116;-66
2021/12/19 03:21:41;;;;;;;85.10;27.58;;;;;;;;;;4894236;29;20044;-66
2021/12/19 03:24:08;;;;;;;90.88;28.42;;;;;;;;;;4952171;29;20031;-66
2021/12/19 03:26:34;;;;;;;84.70;28.85;;;;;;;;;;4951638;29;20042;-66
2021/12/19 03:29:00;;;;;;;88.35;28.42;;;;;;;;;;4950974;29;20074;-66
2021/12/19 03:31:26;;;;;;;86.40;29.42;;;;;;;;;;4951761;29;20027;-66
2021/12/19 03:33:53;;;;;;;92.13;30.20;;;;;;;;;;4951086;29;20041;-66
2021/12/19 03:36:19;;;;;;;97.32;29.10;;;;;;;;;;4951509;29;20051;-66
2021/12/19 03:38:45;;;;;;;101.28;29.33;;;;;;;;;;4951693;29;20038;-66
2021/12/19 03:43:40;;;;;;;98.22;29.73;;;;;;;;;;4950658;29;20027;-66
2021/12/19 03:46:07;;;;;;;101.35;30.88;;;;;;;;;;4951624;29;20139;-66
2021/12/19 03:48:33;;;;;;;100.93;31.45;;;;;;;;;;4984598;28;20104;-67
2021/12/19 03:50:59;;;;;;;92.03;29.92;;;;;;;;;;4992627;28;20011;-67
2021/12/19 03:53:26;;;;;;;87.45;27.50;;;;;;;;;;4992292;28;20022;-67
2021/12/19 03:55:52;;;;;;;108.00;32.47;;;;;;;;;;4991960;28;20022;-67
2021/12/19 03:58:19;;;;;;;101.88;29.50;;;;;;;;;;4992566;28;20121;-67
2021/12/19 04:00:45;;;;;;;91.97;31.45;;;;;;;;;;4992256;28;20022;-67
2021/12/19 04:03:17;;;;;;;95.38;30.83;;;;;;;;;;4993363;28;20027;-66
2021/12/19 04:05:43;;;;;;;100.45;30.48;;;;;;;;;;4995121;28;20034;-66
2021/12/19 04:08:10;;;;;;;104.50;32.60;;;;;;;;;;4996285;28;20037;-66
2021/12/19 04:10:36;;;;;;;94.57;31.63;;;;;;;;;;4995194;28;20018;-66
2021/12/19 04:13:04;;;;;;;101.97;29.48;;;;;;;;;;4995989;28;20022;-66
2021/12/19 04:15:30;;;;;;;86.18;28.25;;;;;;;;;;4995421;28;20034;-66
2021/12/19 04:17:56;;;;;;;94.88;30.83;;;;;;;;;;4995983;28;20065;-66
2021/12/19 04:20:23;;;;;;;90.63;30.77;;;;;;;;;;4996094;28;20495;-66
2021/12/19 04:22:50;;;;;;;95.43;30.95;;;;;;;;;;4994974;28;20084;-66
2021/12/19 04:25:16;;;;;;;97.70;30.88;;;;;;;;;;4996066;28;20022;-66
2021/12/19 04:27:43;;;;;;;95.90;29.98;;;;;;;;;;4995930;28;20030;-66
2021/12/19 04:30:10;;;;;;;97.15;29.40;;;;;;;;;;4995972;28;20117;-66
2021/12/19 04:32:42;;;;;;;104.20;30.10;;;;;;;;;;4994073;28;20034;-66
2021/12/19 04:35:09;;;;;;;104.18;32.53;;;;;;;;;;4991080;28;20081;-66
2021/12/19 04:40:20;;;;;;;84.68;30.70;;;;;;;;;;4995099;28;20030;-66
2021/12/19 05:14:24;;;;;;;94.25;30.67;;;;;;;;;;4994580;28;20407;-66
2021/12/19 05:16:51;;;;;;;100.03;30.27;;;;;;;;;;4993791;28;20441;-66
2021/12/19 05:19:31;;;;;;;96.50;29.85;;;;;;;;;;4994502;28;20019;-66
2021/12/19 05:22:01;;;;;;;92.93;29.75;;;;;;;;;;4986529;28;20034;-66
2021/12/19 05:27:06;;;;;;;87.50;29.95;;;;;;;;;;4994372;28;20026;-66
2021/12/19 05:29:33;;;;;;;91.35;30.52;;;;;;;;;;5008624;28;20034;-66
2021/12/19 05:31:59;;;;;;;98.00;30.70;;;;;;;;;;4993309;28;20031;-66
2021/12/19 05:34:27;;;;;;;92.60;28.58;;;;;;;;;;4994156;28;20042;-66
2021/12/19 05:45:12;;;;;;;92.30;30.58;;;;;;;;;;4989770;28;20078;-66
2021/12/19 05:47:39;;;;;;;98.43;32.72;;;;;;;;;;4993882;28;20105;-66
2021/12/19 05:50:05;;;;;;;92.55;30.08;;;;;;;;;;4993937;28;20022;-66
2021/12/19 05:52:31;;;;;;;85.78;31.80;;;;;;;;;;4993851;28;20040;-66
2021/12/19 05:54:57;;;;;;;96.40;31.05;;;;;;;;;;4993603;28;20034;-66
2021/12/19 05:57:23;;;;;;;104.18;32.60;;;;;;;;;;4993449;28;20022;-66
2021/12/19 05:59:50;;;;;;;88.88;33.05;;;;;;;;;;4993045;28;20069;-66
2021/12/19 06:02:16;;;;;;;92.65;31.40;;;;;;;;;;4993734;28;20019;-66
2021/12/19 06:04:43;;;;;;;93.93;31.50;;;;;;;;;;4993169;28;20034;-66
2021/12/19 06:07:09;;;;;;;100.35;33.22;;;;;;;;;;4993815;28;20026;-66
2021/12/19 06:09:35;;;;;;;98.30;32.45;;;;;;;;;;4992297;28;20275;-66
2021/12/19 06:12:01;;;;;;;97.22;30.90;;;;;;;;;;4992980;28;20026;-66
2021/12/19 06:14:32;;;;;;;100.00;31.73;;;;;;;;;;4993264;28;20053;-66
2021/12/19 06:16:59;;;;;;;100.03;30.98;;;;;;;;;;4992846;28;20030;-66
2021/12/19 06:19:25;;;;;;;102.07;34.40;;;;;;;;;;4993283;28;20105;-66
2021/12/19 06:21:51;;;;;;;94.13;30.95;;;;;;;;;;4992918;28;20113;-66
2021/12/19 06:24:17;;;;;;;90.65;29.42;;;;;;;;;;4993050;28;20098;-66
2021/12/19 06:26:43;;;;;;;87.88;30.90;;;;;;;;;;4990911;28;20030;-66
2021/12/19 06:29:09;;;;;;;80.57;30.27;;;;;;;;;;4992858;28;20026;-66
2021/12/19 06:31:35;;;;;;;92.05;32.03;;;;;;;;;;4993193;28;20030;-66
2021/12/19 06:34:01;;;;;;;84.00;30.95;;;;;;;;;;4992500;28;20487;-66
2021/12/19 06:36:28;;;;;;;84.30;30.05;;;;;;;;;;4992907;28;20056;-66
2021/12/19 06:38:54;;;;;;;86.60;31.48;;;;;;;;;;4992879;28;20045;-66
2021/12/19 06:41:20;;;;;;;94.53;31.75;;;;;;;;;;4992430;28;20517;-66
2021/12/19 06:43:46;;;;;;;97.85;30.75;;;;;;;;;;4992639;28;20105;-66
2021/12/19 06:46:13;;;;;;;87.45;30.13;;;;;;;;;;4992622;28;20056;-66
2021/12/19 06:48:39;;;;;;;83.38;29.27;;;;;;;;;;4992099;28;20406;-66
2021/12/19 06:51:05;;;;;;;83.60;30.13;;;;;;;;;;4993000;28;20035;-66
2021/12/19 06:53:31;;;;;;;88.63;30.58;;;;;;;;;;4992632;28;20061;-66
2021/12/19 06:55:58;;;;;;;77.25;30.60;;;;;;;;;;4997154;28;20031;-66
2021/12/19 06:58:24;;;;;;;85.95;30.35;;;;;;;;;;4992420;28;20018;-66
2021/12/19 07:00:51;;;;;;;82.55;28.65;;;;;;;;;;4995057;28;20023;-66
2021/12/19 07:03:22;;;;;;;81.72;29.30;;;;;;;;;;5000319;28;20030;-66
2021/12/19 07:05:49;;;;;;;79.38;30.20;;;;;;;;;;4989192;28;20026;-66
2021/12/19 07:08:15;;;;;;;88.25;29.50;;;;;;;;;;4992721;28;20374;-66
2021/12/19 07:10:41;;;;;;;85.40;27.08;;;;;;;;;;4991317;28;20037;-66
2021/12/19 07:13:07;;;;;;;82.63;27.20;;;;;;;;;;4992453;28;20029;-66
2021/12/19 07:15:33;;;;;;;72.68;27.20;;;;;;;;;;4992474;28;20026;-66
2021/12/19 07:18:02;;;;;;;74.00;26.60;;;;;;;;;;4992678;28;20033;-66
2021/12/19 07:20:29;;;;;;;68.55;25.33;;;;;;;;;;4992649;28;20378;-66
2021/12/19 07:22:56;;;;;;;62.97;25.17;;;;;;;;;;4992568;28;20026;-66
2021/12/19 07:25:22;;;;;;;78.40;26.30;;;;;;;;;;4992049;28;20144;-75
2021/12/19 07:27:48;;;;;;;71.78;26.42;;;;;;;;;;4989213;28;20034;-67
2021/12/19 07:30:14;;;;;;;77.82;26.45;;;;;;;;;;4991320;28;20034;-67
2021/12/19 07:32:40;;;;;;;71.88;24.77;;;;;;;;;;4991903;28;20034;-67
2021/12/19 07:35:08;;;;;;;72.85;25.17;;;;;;;;;;4992263;28;20057;-66
2021/12/19 07:37:36;;;;;;;64.28;24.33;;;;;;;;;;4991222;28;20125;-68
2021/12/19 07:40:16;;;;;;;81.72;27.50;;;;;;;;;;4992255;28;20106;-67
2021/12/19 07:42:42;;;;;;;71.07;24.88;;;;;;;;;;4991609;28;20038;-67
2021/12/19 07:45:10;;;;;;;78.88;25.70;;;;;;;;;;4991087;28;20022;-67
2021/12/19 07:47:36;;;;;;;75.10;24.98;;;;;;;;;;4999817;28;20506;-67
2021/12/19 07:50:03;;;;;;;80.97;25.75;;;;;;;;;;5000924;28;20065;-67
2021/12/19 07:52:29;;;;;;;74.97;26.60;;;;;;;;;;5002065;28;20150;-67
2021/12/19 07:54:55;;;;;;;71.93;23.65;;;;;;;;;;4998914;28;20101;-67
2021/12/19 07:57:21;;;;;;;63.10;24.75;;;;;;;;;;5001284;28;20030;-67
2021/12/19 07:59:47;;;;;;;71.35;24.60;;;;;;;;;;4996382;28;20050;-67
2021/12/19 08:02:13;;;;;;;59.50;22.75;;;;;;;;;;4991650;28;20032;-67
2021/12/19 08:04:39;;;;;;;64.00;22.92;;;;;;;;;;4990851;28;20027;-67
2021/12/19 08:07:08;;;;;;;70.28;23.80;;;;;;;;;;4988879;28;20023;-67
2021/12/19 08:09:58;;;;;;;70.88;24.48;;;;;;;;;;4988805;28;20116;-67
2021/12/19 08:12:24;;;;;;;63.47;24.15;;;;;;;;;;4987077;28;20101;-67
2021/12/19 08:14:50;;;;;;;65.35;24.65;;;;;;;;;;4993223;28;20034;-67
2021/12/19 08:17:17;;;;;;;69.38;25.85;;;;;;;;;;4990437;28;20054;-67
2021/12/19 08:19:43;;;;;;;69.03;21.55;;;;;;;;;;4992215;28;20014;-67
2021/12/19 08:22:10;;;;;;;61.65;20.52;;;;;;;;;;4991959;28;20538;-67
2021/12/19 08:24:36;;;;;;;52.10;18.58;;;;;;;;;;4991188;28;20026;-67
2021/12/19 08:27:02;;;;;;;53.47;19.88;;;;;;;;;;4990360;28;20041;-67
2021/12/19 08:29:29;;;;;;;59.40;21.15;;;;;;;;;;4991335;28;20438;-67
2021/12/19 08:31:55;;;;;;;51.22;21.58;;;;;;;;;;4991412;28;20042;-67
2021/12/19 08:34:21;;;;;;;45.83;18.58;;;;;;;;;;4991531;28;20040;-67
2021/12/19 08:36:47;;;;;;;53.33;19.70;;;;;;;;;;4991442;28;20076;-67
2021/12/19 08:39:14;;;;;;;45.90;18.63;;;;;;;;;;4991505;28;20550;-67
2021/12/19 08:41:41;;;;;;;47.00;18.33;;;;;;;;;;4991245;28;20521;-67
2021/12/19 08:44:07;;;;;;;47.35;19.58;;;;;;;;;;4991515;28;20038;-67
2021/12/19 08:46:35;;;;;;;40.58;17.25;;;;;;;;;;4989893;28;20022;-67
2021/12/19 08:49:02;;;;;;;51.28;18.00;;;;;;;;;;4991831;28;20033;-67
2021/12/19 08:51:28;;;;;;;39.60;15.25;;;;;;;;;;5002453;28;20065;-67
2021/12/19 08:53:54;;;;;;;41.70;15.30;;;;;;;;;;4995060;28;20485;-67
2021/12/19 08:56:20;;;;;;;40.83;16.30;;;;;;;;;;4995323;28;20033;-67
2021/12/19 08:58:46;;;;;;;43.58;18.05;;;;;;;;;;4992869;28;20030;-67
2021/12/19 09:01:12;;;;;;;35.65;15.55;;;;;;;;;;4993967;28;20080;-67
2021/12/19 09:03:38;;;;;;;39.50;16.27;;;;;;;;;;4994059;28;20467;-66
2021/12/19 09:06:04;;;;;;;36.42;14.25;;;;;;;;;;4992862;28;20026;-66
2021/12/19 09:08:30;;;;;;;41.35;17.33;;;;;;;;;;4994450;28;20030;-66
2021/12/19 09:10:57;;;;;;;35.63;14.27;;;;;;;;;;4993360;28;20026;-66
2021/12/19 09:13:24;;;;;;;30.80;13.18;;;;;;;;;;4992613;28;20054;-66
2021/12/19 09:15:50;;;;;;;27.30;11.75;;;;;;;;;;4993983;28;20077;-66
2021/12/19 09:18:17;;;;;;;25.65;12.70;;;;;;;;;;4994918;28;20025;-66
2021/12/19 09:20:43;;;;;;;26.95;11.57;;;;;;;;;;4993450;28;20022;-66
2021/12/19 09:23:11;;;;;;;34.92;13.07;;;;;;;;;;4992881;28;20033;-66
2021/12/19 09:25:38;;;;;;;26.05;11.18;;;;;;;;;;4989858;28;20058;-66
2021/12/19 09:28:04;;;;;;;30.02;10.48;;;;;;;;;;4993248;28;20077;-67
2021/12/19 09:30:30;;;;;;;20.95;10.50;;;;;;;;;;4994240;28;20141;-67
2021/12/19 09:32:57;;;;;;;25.80;11.00;;;;;;;;;;4993410;28;20022;-67
2021/12/19 09:35:23;;;;;;;23.48;9.90;;;;;;;;;;4989781;28;20099;-67
2021/12/19 09:37:49;;;;;;;21.05;9.77;;;;;;;;;;4992819;28;20034;-67
2021/12/19 09:40:22;;;;;;;20.30;8.80;;;;;;;;;;4994199;28;20038;-67
2021/12/19 09:43:00;;;;;;;20.58;9.82;;;;;;;;;;4993640;28;20030;-67
2021/12/19 09:45:27;;;;;;;22.60;10.35;;;;;;;;;;4993518;28;20065;-68
2021/12/19 09:47:53;;;;;;;25.80;11.52;;;;;;;;;;4993207;28;20076;-68
2021/12/19 09:50:19;;;;;;;22.40;10.18;;;;;;;;;;4993745;28;20053;-67
2021/12/19 09:52:46;;;;;;;23.15;9.80;;;;;;;;;;4992333;28;20034;-67
2021/12/19 09:55:17;;;;;;;19.60;9.00;;;;;;;;;;4993930;28;20038;-67
2021/12/19 09:57:43;;;;;;;22.90;9.38;;;;;;;;;;4993327;28;20030;-67
2021/12/19 10:00:10;;;;;;;18.40;9.18;;;;;;;;;;4993020;28;20081;-67
2021/12/19 10:02:40;;;;;;;21.20;9.25;;;;;;;;;;4990871;28;20023;-67
2021/12/19 10:05:17;;;;;;;22.30;9.88;;;;;;;;;;4993295;28;20501;-67
2021/12/19 10:07:57;;;;;;;22.50;10.05;;;;;;;;;;4994167;28;20026;-67
2021/12/19 10:10:41;;;;;;;24.20;8.20;;;;;;;;;;4992263;28;20030;-67
2021/12/19 10:13:07;;;;;;;16.20;7.70;;;;;;;;;;4993630;28;20046;-67
2021/12/19 10:15:35;;;;;;;18.48;7.45;;;;;;;;;;4994291;28;20102;-67
2021/12/19 10:18:17;;;;;;;16.95;7.63;;;;;;;;;;4990819;28;20042;-67
2021/12/19 10:20:56;;;;;;;23.10;8.25;;;;;;;;;;4976011;28;20380;-67
2021/12/19 10:23:22;;;;;;;19.38;8.10;;;;;;;;;;5006303;28;20524;-67
2021/12/19 10:26:09;;;;;;;18.45;8.23;;;;;;;;;;4992041;28;20045;-67
2021/12/19 10:28:49;;;;;;;17.25;7.93;;;;;;;;;;4993273;28;20022;-68
2021/12/19 10:31:15;;;;;;;15.68;7.57;;;;;;;;;;4986355;28;20031;-68
2021/12/19 10:33:41;;;;;;;21.25;8.48;;;;;;;;;;4991863;28;20034;-68
2021/12/19 10:36:09;;;;;;;17.30;8.38;;;;;;;;;;4990683;28;20422;-68
2021/12/19 10:38:36;;;;;;;20.90;8.57;;;;;;;;;;4989369;28;20018;-68
2021/12/19 10:41:06;;;;;;;24.55;8.88;;;;;;;;;;4992622;28;20050;-67
2021/12/19 10:43:33;;;;;;;17.95;8.82;;;;;;;;;;4986486;28;20461;-67
2021/12/19 10:46:00;;;;;;;22.85;8.82;;;;;;;;;;4990917;28;20479;-68
2021/12/19 10:48:29;;;;;;;19.27;8.60;;;;;;;;;;4989419;28;20029;-68
2021/12/19 10:51:01;;;;;;;17.63;8.02;;;;;;;;;;4989635;28;20037;-68
2021/12/19 10:53:28;;;;;;;22.67;9.32;;;;;;;;;;4986460;28;20046;-67
2021/12/19 10:55:55;;;;;;;16.27;8.10;;;;;;;;;;4990068;28;20030;-68
2021/12/19 10:58:21;;;;;;;19.60;9.13;;;;;;;;;;4991413;28;20023;-67
2021/12/19 11:00:56;;;;;;;21.13;9.85;;;;;;;;;;4989978;28;20019;-67
2021/12/19 11:03:34;;;;;;;19.10;8.10;;;;;;;;;;4985219;28;20033;-67
2021/12/19 11:06:00;;;;;;;18.63;9.45;;;;;;;;;;4988075;28;20426;-67
2021/12/19 11:08:31;;;;;;;20.20;9.50;;;;;;;;;;5005296;28;20043;-68
2021/12/19 11:10:57;;;;;;;21.05;9.60;;;;;;;;;;4986536;28;20585;-67
2021/12/19 11:13:24;;;;;;;25.55;9.18;;;;;;;;;;4987859;28;20032;-67
2021/12/19 11:15:50;;;;;;;18.17;9.52;;;;;;;;;;4982052;28;20072;-67
2021/12/19 11:18:16;;;;;;;23.50;11.20;;;;;;;;;;4987127;28;20034;-67
2021/12/19 11:20:43;;;;;;;25.52;11.30;;;;;;;;;;4985425;28;20474;-67
2021/12/19 11:23:09;;;;;;;22.98;10.25;;;;;;;;;;4984848;28;20364;-67
2021/12/19 11:25:36;;;;;;;20.83;10.30;;;;;;;;;;4988440;28;20026;-67
2021/12/19 11:28:02;;;;;;;25.27;10.65;;;;;;;;;;4991653;28;20393;-67
2021/12/19 11:30:29;;;;;;;21.23;9.93;;;;;;;;;;4989253;28;20030;-67
2021/12/19 11:32:55;;;;;;;22.58;9.20;;;;;;;;;;4989453;28;20125;-67
2021/12/19 11:35:23;;;;;;;21.55;10.15;;;;;;;;;;4990291;28;20081;-67
2021/12/19 11:37:54;;;;;;;20.05;9.65;;;;;;;;;;4990014;28;20396;-67
2021/12/19 11:40:22;;;;;;;27.70;10.55;;;;;;;;;;4990801;28;20019;-67
2021/12/19 11:42:49;;;;;;;19.40;9.57;;;;;;;;;;4990439;28;20026;-67
2021/12/19 11:46:10;;;;;;;22.55;9.55;;;;;;;;;;4990966;28;20031;-67
2021/12/19 11:48:30;;;;;;;21.13;9.60;;;;;;;;;;4986783;28;20042;-67
2021/12/19 11:50:58;;;;;;;20.50;9.82;;;;;;;;;;4972616;28;20027;-67
2021/12/19 11:53:25;;;;;;;22.73;10.48;;;;;;;;;;4973013;28;20118;-67
2021/12/19 11:56:12;;;;;;;24.13;10.32;;;;;;;;;;4980994;28;20026;-67
2021/12/19 11:58:45;;;;;;;19.27;9.15;;;;;;;;;;4988514;28;20042;-67
2021/12/19 12:01:25;;;;;;;22.73;10.23;;;;;;;;;;4983205;28;20058;-67
2021/12/19 12:03:51;;;;;;;20.02;9.63;;;;;;;;;;4991709;28;20118;-67
2021/12/19 12:06:19;;;;;;;20.52;10.50;;;;;;;;;;4991415;28;20098;-67
2021/12/19 12:09:04;;;;;;;21.92;9.38;;;;;;;;;;4990581;28;20034;-67
2021/12/19 12:11:30;;;;;;;20.85;9.93;;;;;;;;;;4991778;28;20541;-67
2021/12/19 12:14:16;;;;;;;22.60;8.50;;;;;;;;;;4991431;28;20023;-67
2021/12/19 12:16:51;;;;;;;22.35;8.98;;;;;;;;;;4986920;28;20026;-67
2021/12/19 12:19:17;;;;;;;19.33;8.75;;;;;;;;;;4988501;28;20033;-67
2021/12/19 12:21:48;;;;;;;17.88;8.50;;;;;;;;;;4991016;28;20050;-67
2021/12/19 12:24:16;;;;;;;16.50;8.18;;;;;;;;;;4992067;28;20114;-67
2021/12/19 12:26:51;;;;;;;19.20;8.18;;;;;;;;;;4995223;28;20029;-67
2021/12/19 12:29:17;;;;;;;16.52;7.90;;;;;;;;;;4994469;28;20169;-67
2021/12/19 12:31:45;;;;;;;23.88;8.90;;;;;;;;;;4994562;28;20040;-67
2021/12/19 12:34:12;;;;;;;21.27;8.95;;;;;;;;;;4994971;28;20089;-67
2021/12/19 12:36:39;;;;;;;21.88;9.23;;;;;;;;;;4994868;28;20097;-67
2021/12/19 12:39:10;;;;;;;26.23;9.80;;;;;;;;;;4995193;28;20023;-67
2021/12/19 12:44:06;;;;;;;19.30;9.15;;;;;;;;;;4993554;28;20026;-67
2021/12/19 12:46:32;;;;;;;23.60;10.18;;;;;;;;;;4994003;28;20049;-67
2021/12/19 12:49:03;;;;;;;22.05;8.55;;;;;;;;;;4994017;28;20096;-67
2021/12/19 12:51:32;;;;;;;19.83;9.15;;;;;;;;;;4995105;28;20015;-67
2021/12/19 12:54:07;;;;;;;21.50;8.80;;;;;;;;;;4992620;28;20168;-67
2021/12/19 12:56:36;;;;;;;23.35;9.88;;;;;;;;;;4986921;28;20034;-67
2021/12/19 12:59:03;;;;;;;23.23;9.48;;;;;;;;;;4990223;28;20029;-67
2021/12/19 13:01:29;;;;;;;23.40;9.20;;;;;;;;;;4991417;28;20018;-67
2021/12/19 13:04:01;;;;;;;21.00;8.05;;;;;;;;;;4991020;28;20026;-67
2021/12/19 13:06:36;;;;;;;20.33;8.23;;;;;;;;;;4993484;28;20030;-67
2021/12/19 13:09:09;;;;;;;18.42;8.48;;;;;;;;;;4993464;28;20397;-67
2021/12/19 13:11:36;;;;;;;17.42;8.48;;;;;;;;;;4992165;28;20026;-67
2021/12/19 13:14:16;;;;;;;19.30;8.82;;;;;;;;;;4994954;28;20037;-67
2021/12/19 13:16:46;;;;;;;22.15;8.07;;;;;;;;;;4994099;28;20044;-67
2021/12/19 13:19:32;;;;;;;20.05;8.10;;;;;;;;;;4994043;28;20405;-67
2021/12/19 13:21:58;;;;;;;17.20;7.35;;;;;;;;;;4993903;28;20033;-68
2021/12/19 13:24:24;;;;;;;16.08;7.80;;;;;;;;;;4993924;28;20603;-67
2021/12/19 13:27:13;;;;;;;17.70;7.55;;;;;;;;;;4996498;28;20029;-67
2021/12/19 13:29:41;;;;;;;15.68;7.63;;;;;;;;;;5009532;28;20053;-67
2021/12/19 13:32:24;;;;;;;16.52;7.72;;;;;;;;;;4994262;28;20030;-67
2021/12/19 13:34:50;;;;;;;;;;;;;;;;;;4986187;28;20046;-67
2021/12/19 13:37:17;;;;;;;17.85;8.02;;;;;;;;;;4990049;28;19917;-67
2021/12/19 13:39:45;;;;;;;15.80;6.88;;;;;;;;;;4988895;28;20169;-67
2021/12/19 13:42:13;;;;;;;14.85;8.23;;;;;;;;;;4989074;28;20050;-67
2021/12/19 13:44:39;;;;;;;17.98;8.18;;;;;;;;;;4993690;28;20105;-67
2021/12/19 13:47:09;;;;;;;18.45;8.00;;;;;;;;;;4992998;28;20034;-67
2021/12/19 13:49:36;;;;;;;24.63;8.68;;;;;;;;;;4994134;28;20034;-67
2021/12/19 13:52:03;;;;;;;19.25;7.95;;;;;;;;;;4992433;28;20109;-67
2021/12/19 13:54:31;;;;;;;17.95;8.32;;;;;;;;;;4993671;28;20092;-67
2021/12/19 13:56:58;;;;;;;18.88;7.72;;;;;;;;;;4992713;28;20026;-67
2021/12/19 13:59:24;;;;;;;18.27;8.63;;;;;;;;;;4993189;28;20410;-67
2021/12/19 14:01:51;;;;;;;15.07;7.30;;;;;;;;;;4993538;28;20036;-67
2021/12/19 14:04:25;;;;;;;13.18;6.57;;;;;;;;;;4993526;28;20022;-67
2021/12/19 14:06:57;;;;;;;15.15;6.47;;;;;;;;;;4993806;28;20049;-67
2021/12/19 14:09:24;;;;;;;14.98;6.25;;;;;;;;;;4993266;28;20093;-67
2021/12/19 14:12:00;;;;;;;13.02;5.78;;;;;;;;;;4993167;28;20026;-67
2021/12/19 14:14:31;;;;;;;14.52;6.63;;;;;;;;;;4993300;28;20058;-67
2021/12/19 14:17:07;;;;;;;13.93;6.47;;;;;;;;;;4992828;28;20061;-67
2021/12/19 14:19:35;;;;;;;11.45;5.82;;;;;;;;;;4989677;28;20018;-67
2021/12/19 14:22:04;;;;;;;12.55;6.35;;;;;;;;;;4991065;28;20376;-67
2021/12/19 14:24:35;;;;;;;13.18;5.82;;;;;;;;;;4988665;28;20046;-67
2021/12/19 14:27:07;;;;;;;16.80;6.22;;;;;;;;;;4990184;28;20069;-67
2021/12/19 14:29:33;;;;;;;12.25;6.50;;;;;;;;;;4992896;28;20748;-67
2021/12/19 14:32:19;;;;;;;15.38;7.13;;;;;;;;;;4992593;28;20034;-66
2021/12/19 14:34:47;;;;;;;13.00;6.30;;;;;;;;;;4989971;28;20059;-67
2021/12/19 14:37:18;;;;;;;15.10;6.55;;;;;;;;;;4993162;28;20026;-67
2021/12/19 14:39:56;;;;;;;12.95;6.00;;;;;;;;;;4993605;28;20109;-67
2021/12/19 14:42:27;;;;;;;15.32;6.82;;;;;;;;;;4992935;28;20448;-67
2021/12/19 14:44:55;;;;;;;11.85;6.32;;;;;;;;;;4994053;28;20442;-67
2021/12/19 14:47:39;;;;;;;17.00;6.15;;;;;;;;;;4992328;28;20030;-67
2021/12/19 14:50:10;;;;;;;15.73;7.28;;;;;;;;;;4984972;28;20069;-67
2021/12/19 14:52:36;;;;;;;15.43;5.93;;;;;;;;;;4991294;28;20088;-67
2021/12/19 14:55:14;;;;;;;15.70;6.70;;;;;;;;;;4990361;28;21157;-66
2021/12/19 14:57:41;;;;;;;18.38;7.72;;;;;;;;;;4991914;28;20026;-67
2021/12/19 15:00:07;;;;;;;15.43;8.38;;;;;;;;;;4992471;28;20430;-67
2021/12/19 15:02:34;;;;;;;14.00;7.18;;;;;;;;;;4992104;28;20019;-67
2021/12/19 15:05:00;;;;;;;18.90;7.72;;;;;;;;;;4991885;28;20022;-67
2021/12/19 15:07:26;;;;;;;18.50;7.15;;;;;;;;;;4991603;28;20057;-67
2021/12/19 15:09:52;;;;;;;13.27;7.07;;;;;;;;;;4992286;28;20547;-66
2021/12/19 15:12:19;;;;;;;15.20;7.43;;;;;;;;;;4991088;28;20022;-66
2021/12/19 15:14:45;;;;;;;18.33;9.10;;;;;;;;;;4991693;28;20042;-66
2021/12/19 15:17:11;;;;;;;19.80;7.32;;;;;;;;;;4991576;28;20027;-66
2021/12/19 15:19:37;;;;;;;17.10;7.35;;;;;;;;;;4991481;28;20034;-66
2021/12/19 15:22:04;;;;;;;13.65;7.00;;;;;;;;;;4993129;28;20026;-66
2021/12/19 15:24:30;;;;;;;15.63;7.50;;;;;;;;;;4991732;28;20455;-66
2021/12/19 15:26:56;;;;;;;16.80;6.93;;;;;;;;;;4991465;28;20057;-66
2021/12/19 15:29:22;;;;;;;14.60;6.95;;;;;;;;;;4984005;28;20114;-66
2021/12/19 15:31:50;;;;;;;14.05;7.63;;;;;;;;;;4988649;28;20026;-66
2021/12/19 15:34:16;;;;;;;14.90;6.53;;;;;;;;;;4990405;28;20038;-66
2021/12/19 15:36:42;;;;;;;16.38;7.50;;;;;;;;;;4990620;28;20116;-66
2021/12/19 15:39:09;;;;;;;18.52;8.63;;;;;;;;;;4991977;28;20053;-66
2021/12/19 15:41:35;;;;;;;17.15;7.32;;;;;;;;;;4990921;28;20105;-66